Crystal City, Texas
Current Conditions -  °F | °C
As of 7:15 PM on Saturday 22 Nov 2014 (Local Time) from KCZT Reporting Station
Thunderstorm Thunderstorm  
Wind Chill: 61°   Ceiling: 4300
Heat Index: 61°   Visibility: 10mi
Dew Point: 52°   Wind: 10mph
Humidity: 72%   Direction: 310°NW
Pressure: 29.84"   Gusts: NA
Location:  28.68°N, 99.83°W
Report Text: KCZT 230115Z AUTO 31009KT 10SM VCTS SCT037 BKN043 OVC060 16/11 A2984 RMK AO2 LTG DSNT W THRU NE
Loading
Personal Weather Stations






























Interactive Weather Map New forecast layout! Learn more

10-Day Weather Forecast

Advertisements
Track Severe Weather on mobile